createdAt,value
2023-01-17T00:01:55.195Z,12.25
2023-01-17T00:04:42.016Z,12.38
2023-01-17T00:07:29.813Z,15.25
2023-01-17T00:09:59.705Z,13.98
2023-01-17T00:12:31.203Z,13.18
2023-01-17T00:15:01.012Z,13.18
2023-01-17T00:17:32.007Z,11.10
2023-01-17T00:20:20.094Z,12.85
2023-01-17T00:23:06.564Z,12.05
2023-01-17T00:25:55.536Z,14.70
2023-01-17T00:28:24.308Z,10.80
2023-01-17T00:30:51.647Z,8.18
2023-01-17T00:33:19.133Z,9.15
2023-01-17T00:35:49.279Z,11.75
2023-01-17T00:38:17.655Z,12.45
2023-01-17T00:40:45.603Z,13.13
2023-01-17T00:43:33.348Z,8.93
2023-01-17T00:46:21.007Z,8.77
2023-01-17T00:49:06.951Z,12.80
2023-01-17T00:51:55.346Z,12.55
2023-01-17T00:54:41.430Z,12.75
2023-01-17T00:57:27.242Z,10.10
2023-01-17T01:00:14.089Z,11.65
2023-01-17T01:03:01.502Z,12.82
2023-01-17T01:05:47.438Z,11.88
2023-01-17T01:08:38.545Z,12.05
2023-01-17T01:11:26.505Z,8.80
2023-01-17T01:14:12.775Z,13.32
2023-01-17T01:16:58.346Z,12.55
2023-01-17T01:19:45.561Z,13.07
2023-01-17T01:22:31.567Z,12.18
2023-01-17T01:25:17.434Z,13.57
2023-01-17T01:28:03.390Z,13.68
2023-01-17T01:30:49.419Z,10.63
2023-01-17T01:33:19.660Z,13.57
2023-01-17T01:35:53.873Z,13.98
2023-01-17T01:38:23.977Z,11.13
2023-01-17T01:40:56.818Z,14.45
2023-01-17T01:43:42.571Z,13.45
2023-01-17T01:46:13.135Z,12.02
2023-01-17T01:48:43.813Z,9.13
2023-01-17T01:51:17.169Z,15.77
2023-01-17T01:53:48.375Z,13.23
2023-01-17T01:56:17.407Z,12.73
2023-01-17T01:58:48.633Z,16.02
2023-01-17T02:01:19.635Z,18.33
2023-01-17T02:03:48.708Z,15.18
2023-01-17T02:06:27.588Z,15.70
2023-01-17T02:08:57.773Z,11.27
2023-01-17T02:11:26.678Z,15.60
2023-01-17T02:13:55.509Z,11.98
2023-01-17T02:16:35.283Z,14.95
2023-01-17T02:19:17.319Z,15.13
2023-01-17T02:21:54.407Z,12.82
2023-01-17T02:25:00.674Z,13.65
2023-01-17T02:27:30.063Z,16.75
2023-01-17T02:30:32.211Z,13.15
2023-01-17T02:33:07.229Z,13.15
2023-01-17T02:35:41.791Z,16.60
2023-01-17T02:38:33.217Z,15.27
2023-01-17T02:41:05.366Z,14.23
2023-01-17T02:43:36.054Z,13.98
2023-01-17T02:46:09.895Z,13.10
2023-01-17T02:48:38.665Z,13.05
2023-01-17T02:51:51.929Z,16.02
2023-01-17T02:54:43.275Z,18.38
2023-01-17T02:57:24.028Z,14.32
2023-01-17T02:59:56.623Z,14.55
2023-01-17T03:02:30.710Z,18.23
2023-01-17T03:05:03.513Z,14.85
2023-01-17T03:07:33.542Z,15.70
2023-01-17T03:10:04.762Z,15.40
2023-01-17T03:12:39.168Z,17.30
2023-01-17T03:15:11.390Z,18.63
2023-01-17T03:17:42.640Z,12.95
2023-01-17T03:20:13.029Z,13.88
2023-01-17T03:22:42.488Z,11.70
2023-01-17T03:25:10.967Z,15.18
2023-01-17T03:27:39.308Z,12.23
2023-01-17T03:30:08.971Z,17.58
2023-01-17T03:32:37.337Z,16.48
2023-01-17T03:35:08.254Z,14.77
2023-01-17T03:37:36.586Z,17.35
2023-01-17T03:40:05.477Z,18.05
2023-01-17T03:42:34.285Z,17.75
2023-01-17T03:45:02.894Z,11.45
2023-01-17T03:47:32.281Z,11.43
2023-01-17T03:50:00.666Z,13.48
2023-01-17T03:52:30.509Z,16.63
2023-01-17T03:54:58.837Z,16.52
2023-01-17T03:57:33.085Z,15.00
2023-01-17T04:00:01.430Z,16.02
2023-01-17T04:02:32.446Z,17.70
2023-01-17T04:05:03.924Z,8.50
2023-01-17T04:07:33.658Z,12.52
2023-01-17T04:10:02.027Z,14.13
2023-01-17T04:12:32.255Z,9.85
2023-01-17T04:15:00.620Z,13.90
2023-01-17T04:17:29.029Z,17.95
2023-01-17T04:19:57.427Z,14.30
2023-01-17T04:22:25.860Z,19.30
2023-01-17T04:24:55.603Z,13.43
2023-01-17T04:27:23.903Z,18.38
2023-01-17T04:29:52.891Z,19.23
2023-01-17T04:32:21.223Z,14.05
2023-01-17T04:34:50.147Z,13.90
2023-01-17T04:37:20.342Z,12.05
2023-01-17T04:39:48.939Z,15.85
2023-01-17T04:42:18.650Z,17.67
2023-01-17T04:44:46.987Z,17.25
2023-01-17T04:47:15.506Z,14.70
2023-01-17T04:49:44.253Z,12.82
2023-01-17T04:52:12.722Z,16.63
2023-01-17T04:54:41.000Z,13.77
2023-01-17T04:57:09.282Z,17.38
2023-01-17T04:59:38.967Z,16.75
2023-01-17T05:02:07.325Z,22.08
2023-01-17T05:04:35.786Z,20.85
2023-01-17T05:07:04.202Z,17.58
2023-01-17T05:09:32.577Z,19.88
2023-01-17T05:12:00.971Z,18.13
2023-01-17T05:14:29.283Z,14.55
2023-01-17T05:16:59.308Z,20.15
2023-01-17T05:19:28.094Z,15.90
2023-01-17T05:21:56.487Z,17.23
2023-01-17T05:24:24.783Z,13.38
2023-01-17T05:26:54.867Z,16.92
2023-01-17T05:29:23.366Z,19.60
2023-01-17T05:31:51.674Z,19.90
2023-01-17T05:34:21.418Z,17.75
2023-01-17T05:36:49.892Z,17.15
2023-01-17T05:39:18.264Z,19.15
2023-01-17T05:41:49.659Z,15.77
2023-01-17T05:44:17.938Z,15.27
2023-01-17T05:46:46.276Z,19.02
2023-01-17T05:49:14.883Z,19.90
2023-01-17T05:51:46.867Z,18.38
2023-01-17T05:54:15.223Z,18.60
2023-01-17T05:56:43.537Z,19.77
2023-01-17T05:59:14.124Z,16.10
2023-01-17T06:01:45.117Z,20.00
2023-01-17T06:04:13.505Z,17.63
2023-01-17T06:06:41.879Z,19.80
2023-01-17T06:09:12.975Z,14.35
2023-01-17T06:11:44.317Z,14.43
2023-01-17T06:14:12.663Z,16.73
2023-01-17T06:16:42.851Z,16.85
2023-01-17T06:19:11.292Z,15.05
2023-01-17T06:21:39.651Z,19.40
2023-01-17T06:24:08.536Z,17.50
2023-01-17T06:26:38.259Z,17.77
2023-01-17T06:29:06.584Z,17.63
2023-01-17T06:31:34.926Z,12.05
2023-01-17T06:34:04.101Z,15.23
2023-01-17T06:36:32.488Z,20.13
2023-01-17T06:39:00.818Z,17.60
2023-01-17T06:41:29.134Z,18.13
2023-01-17T06:43:58.890Z,17.45
2023-01-17T06:46:27.264Z,18.77
2023-01-17T06:48:55.736Z,14.75
2023-01-17T06:51:24.118Z,16.55
2023-01-17T06:53:52.413Z,17.30
2023-01-17T06:56:20.726Z,12.85
2023-01-17T06:58:52.041Z,19.10
2023-01-17T07:01:21.819Z,17.35
2023-01-17T07:03:52.545Z,15.65
2023-01-17T07:06:21.196Z,20.70
2023-01-17T07:08:51.270Z,19.17
2023-01-17T07:11:19.842Z,17.35
2023-01-17T07:13:48.282Z,15.77
2023-01-17T07:16:17.097Z,21.77
2023-01-17T07:18:49.767Z,17.83
2023-01-17T07:21:18.199Z,26.73
2023-01-17T07:23:46.554Z,23.58
2023-01-17T07:26:18.354Z,17.92
2023-01-17T07:28:46.781Z,15.40
2023-01-17T07:31:15.144Z,19.75
2023-01-17T07:33:43.583Z,19.85
2023-01-17T07:36:13.531Z,12.90
2023-01-17T07:38:44.016Z,22.48
2023-01-17T07:41:13.036Z,17.88
2023-01-17T07:43:42.088Z,16.77
2023-01-17T07:46:10.487Z,20.90
2023-01-17T07:48:38.869Z,18.17
2023-01-17T07:51:10.312Z,18.88
2023-01-17T07:53:39.965Z,19.15
2023-01-17T07:56:13.321Z,16.67
2023-01-17T07:58:41.954Z,18.35
2023-01-17T08:01:15.889Z,18.98
2023-01-17T08:03:44.604Z,20.17
2023-01-17T08:06:18.675Z,11.98
2023-01-17T08:08:48.469Z,21.45
2023-01-17T08:11:19.097Z,15.80
2023-01-17T08:13:47.507Z,19.27
2023-01-17T08:16:16.191Z,17.80
2023-01-17T08:18:44.614Z,15.30
2023-01-17T08:21:17.003Z,21.00
2023-01-17T08:23:49.944Z,20.88
2023-01-17T08:26:21.642Z,14.30
2023-01-17T08:28:50.974Z,15.40
2023-01-17T08:31:20.056Z,21.42
2023-01-17T08:33:48.549Z,23.90
2023-01-17T08:36:16.897Z,18.15
2023-01-17T08:38:52.939Z,18.25
2023-01-17T08:41:21.873Z,18.20
2023-01-17T08:43:52.037Z,21.58
2023-01-17T08:46:20.846Z,16.85
2023-01-17T08:48:49.475Z,18.35
2023-01-17T08:51:19.671Z,20.58
2023-01-17T08:53:49.688Z,21.55
2023-01-17T08:56:18.104Z,17.85
2023-01-17T08:58:47.778Z,20.42
2023-01-17T09:01:20.040Z,21.73
2023-01-17T09:03:51.517Z,17.55
2023-01-17T09:06:19.937Z,19.63
2023-01-17T09:08:49.842Z,23.38
2023-01-17T09:11:18.711Z,20.65
2023-01-17T09:13:47.045Z,16.50
2023-01-17T09:16:15.500Z,20.38
2023-01-17T09:18:46.578Z,17.20
2023-01-17T09:21:18.211Z,27.17
2023-01-17T09:23:46.671Z,16.48
2023-01-17T09:26:22.694Z,19.90
2023-01-17T09:28:56.275Z,19.83
2023-01-17T09:31:27.142Z,18.10
2023-01-17T09:33:56.667Z,17.63
2023-01-17T09:36:28.962Z,19.90
2023-01-17T09:38:58.788Z,19.48
2023-01-17T09:41:30.936Z,17.50
2023-01-17T09:44:06.411Z,19.83
2023-01-17T09:46:39.260Z,22.27
2023-01-17T09:49:15.578Z,18.95
2023-01-17T09:51:44.994Z,22.90
2023-01-17T09:54:22.820Z,21.88
2023-01-17T09:56:58.627Z,23.05
2023-01-17T09:59:35.279Z,23.33
2023-01-17T10:02:12.522Z,22.25
2023-01-17T10:04:53.035Z,24.20
2023-01-17T10:07:32.517Z,21.33
2023-01-17T10:10:14.172Z,21.60
2023-01-17T10:12:52.091Z,21.92
2023-01-17T10:15:33.823Z,25.63
2023-01-17T10:18:19.056Z,21.50
2023-01-17T10:21:03.258Z,17.65
2023-01-17T10:23:43.568Z,16.92
2023-01-17T10:26:13.688Z,22.83
2023-01-17T10:28:50.699Z,20.33
2023-01-17T10:31:25.189Z,20.58
2023-01-17T10:33:56.818Z,24.25
2023-01-17T10:36:27.763Z,22.25
2023-01-17T10:39:01.876Z,21.85
2023-01-17T10:41:31.589Z,21.15
2023-01-17T10:44:08.665Z,24.30
2023-01-17T10:46:40.719Z,23.17
2023-01-17T10:49:17.136Z,23.88
2023-01-17T10:52:09.134Z,22.20
2023-01-17T10:54:51.930Z,25.27
2023-01-17T10:57:22.886Z,16.50
2023-01-17T10:59:52.984Z,27.17
2023-01-17T11:02:25.328Z,21.42
2023-01-17T11:04:57.714Z,22.27
2023-01-17T11:07:27.433Z,23.63
2023-01-17T11:09:57.201Z,26.00
2023-01-17T11:12:30.809Z,22.67
2023-01-17T11:15:04.208Z,23.67
2023-01-17T11:17:33.579Z,24.17
2023-01-17T11:20:11.436Z,34.95
2023-01-17T11:22:45.089Z,25.02
2023-01-17T11:25:22.141Z,27.02
2023-01-17T11:27:59.448Z,23.45
2023-01-17T11:30:30.988Z,25.02
2023-01-17T11:33:02.715Z,24.52
2023-01-17T11:35:34.398Z,26.20
2023-01-17T11:38:07.772Z,26.52
2023-01-17T11:40:40.048Z,25.90
2023-01-17T11:43:26.050Z,29.58
2023-01-17T11:46:19.388Z,31.40
2023-01-17T11:48:55.041Z,30.83
2023-01-17T11:51:27.215Z,27.67
2023-01-17T11:54:05.932Z,19.75
2023-01-17T11:56:37.871Z,24.50
2023-01-17T11:59:19.125Z,36.90
2023-01-17T12:02:03.421Z,25.23
2023-01-17T12:04:37.305Z,23.67
2023-01-17T12:07:21.582Z,30.42
2023-01-17T12:09:56.153Z,24.67
2023-01-17T12:12:53.767Z,29.55
2023-01-17T12:15:34.498Z,25.42
2023-01-17T12:18:19.243Z,26.80
2023-01-17T12:20:57.976Z,25.58
2023-01-17T12:23:41.879Z,26.08
2023-01-17T12:26:20.814Z,22.65
2023-01-17T12:29:08.975Z,25.25
2023-01-17T12:31:43.476Z,28.25
2023-01-17T12:34:22.972Z,20.25
2023-01-17T12:36:53.911Z,23.98
2023-01-17T12:39:28.348Z,18.90
2023-01-17T12:42:03.796Z,25.27
2023-01-17T12:44:42.848Z,22.38
2023-01-17T12:47:12.298Z,17.58
2023-01-17T12:49:46.754Z,24.27
2023-01-17T12:52:22.824Z,20.67
2023-01-17T12:54:54.831Z,20.92
2023-01-17T12:57:25.076Z,23.35
2023-01-17T13:00:01.122Z,21.08
2023-01-17T13:02:37.835Z,23.75
2023-01-17T13:05:11.922Z,25.90
2023-01-17T13:07:45.773Z,23.13
2023-01-17T13:10:36.523Z,22.43
2023-01-17T13:13:17.237Z,21.33
2023-01-17T13:15:45.820Z,22.88
2023-01-17T13:18:17.429Z,18.60
2023-01-17T13:21:06.281Z,20.70
2023-01-17T13:24:03.813Z,20.85
2023-01-17T13:26:44.325Z,17.85
2023-01-17T13:29:20.373Z,16.23
2023-01-17T13:31:52.325Z,21.45
2023-01-17T13:34:42.131Z,16.08
2023-01-17T13:37:28.524Z,19.42
2023-01-17T13:40:20.059Z,21.35
2023-01-17T13:42:54.964Z,15.70
2023-01-17T13:45:24.671Z,21.35
2023-01-17T13:47:54.056Z,16.90
2023-01-17T13:50:47.190Z,17.35
2023-01-17T13:53:58.065Z,15.30
2023-01-17T13:56:39.966Z,18.80
2023-01-17T13:59:36.034Z,17.35
2023-01-17T14:02:37.492Z,16.70
2023-01-17T14:05:15.378Z,17.65
2023-01-17T14:07:47.621Z,20.23
2023-01-17T14:10:40.918Z,20.02
2023-01-17T14:13:33.054Z,22.23
2023-01-17T14:16:02.138Z,21.65
2023-01-17T14:18:35.136Z,16.05
2023-01-17T14:21:12.986Z,13.93
2023-01-17T14:23:51.761Z,14.60
2023-01-17T14:26:29.489Z,19.02
2023-01-17T14:28:59.762Z,16.08
2023-01-17T14:31:28.494Z,12.82
2023-01-17T14:33:56.921Z,17.70
2023-01-17T14:36:30.516Z,17.75
2023-01-17T14:38:58.969Z,17.30
2023-01-17T14:41:29.930Z,14.73
2023-01-17T14:44:01.291Z,21.42
2023-01-17T14:46:34.194Z,14.55
2023-01-17T14:49:07.525Z,16.52
2023-01-17T14:51:39.882Z,17.17
2023-01-17T14:54:19.520Z,14.30
2023-01-17T14:56:48.234Z,17.90
2023-01-17T14:59:21.681Z,16.65
2023-01-17T15:02:06.592Z,16.50
2023-01-17T15:04:39.642Z,17.25
2023-01-17T15:07:09.240Z,18.33
2023-01-17T15:09:40.220Z,18.13
2023-01-17T15:12:10.971Z,21.10
2023-01-17T15:14:44.014Z,14.95
2023-01-17T15:17:21.223Z,20.67
2023-01-17T15:19:51.842Z,18.48
2023-01-17T15:22:21.124Z,19.40
2023-01-17T15:24:50.349Z,22.05
2023-01-17T15:27:18.888Z,20.90
2023-01-17T15:29:48.987Z,22.10
2023-01-17T15:32:23.784Z,23.73
2023-01-17T15:37:29.916Z,18.73
2023-01-17T15:40:07.391Z,19.88
2023-01-17T15:42:37.863Z,19.88
2023-01-17T15:45:12.930Z,22.85
2023-01-17T15:47:41.662Z,20.45
2023-01-17T15:50:30.364Z,23.00
2023-01-17T15:53:01.001Z,20.02
2023-01-17T15:55:32.718Z,22.17
2023-01-17T15:58:04.772Z,17.52
2023-01-17T16:00:42.023Z,16.40
2023-01-17T16:03:23.617Z,18.70
2023-01-17T16:05:52.984Z,18.65
2023-01-17T16:08:39.760Z,19.95
2023-01-17T16:11:13.611Z,20.13
2023-01-17T16:13:43.564Z,18.20
2023-01-17T16:16:15.747Z,18.17
2023-01-17T16:18:44.796Z,20.33
2023-01-17T16:21:24.428Z,19.92
2023-01-17T16:23:55.580Z,22.25
2023-01-17T16:26:24.865Z,18.85
2023-01-17T16:28:53.578Z,16.48
2023-01-17T16:31:24.267Z,17.75
2023-01-17T16:33:53.539Z,20.15
2023-01-17T16:36:25.104Z,15.93
2023-01-17T16:38:55.932Z,16.10
2023-01-17T16:41:26.246Z,14.85
2023-01-17T16:43:59.816Z,16.88
2023-01-17T16:46:30.421Z,18.33
2023-01-17T16:49:01.274Z,19.77
2023-01-17T16:51:29.714Z,17.88
2023-01-17T16:54:02.353Z,20.23
2023-01-17T16:56:30.827Z,16.65
2023-01-17T16:58:59.202Z,19.05
2023-01-17T17:01:27.562Z,19.48
2023-01-17T17:04:00.035Z,21.83
2023-01-17T17:06:29.000Z,22.25
2023-01-17T17:08:57.406Z,21.48
2023-01-17T17:11:25.773Z,24.55
2023-01-17T17:13:54.387Z,25.25
2023-01-17T17:16:29.353Z,20.48
2023-01-17T17:21:28.800Z,20.25
2023-01-17T17:23:58.728Z,25.50
2023-01-17T17:26:29.070Z,25.75
2023-01-17T17:28:57.560Z,27.10
2023-01-17T17:31:26.223Z,20.55
2023-01-17T17:33:58.259Z,27.58
2023-01-17T17:36:28.551Z,25.77
2023-01-17T17:38:57.427Z,24.38
2023-01-17T17:41:28.299Z,23.45
2023-01-17T17:43:58.253Z,26.42
2023-01-17T17:46:27.385Z,26.20
2023-01-17T17:48:56.206Z,23.25
2023-01-17T17:51:28.196Z,25.45
2023-01-17T17:53:57.703Z,28.88
2023-01-17T17:56:26.045Z,29.25
2023-01-17T17:58:54.716Z,24.38
2023-01-17T18:01:24.427Z,29.38
2023-01-17T18:03:55.216Z,26.27
2023-01-17T18:06:24.080Z,26.70
2023-01-17T18:08:53.985Z,31.92
2023-01-17T18:11:24.066Z,28.52
2023-01-17T18:13:56.971Z,26.45
2023-01-17T18:16:27.452Z,22.70
2023-01-17T18:19:00.081Z,24.83
2023-01-17T18:21:30.468Z,25.48
2023-01-17T18:24:02.010Z,25.55
2023-01-17T18:26:32.509Z,28.17
2023-01-17T18:29:02.082Z,24.45
2023-01-17T18:31:33.977Z,29.27
2023-01-17T18:34:05.869Z,27.60
2023-01-17T18:36:35.950Z,27.55
2023-01-17T18:39:06.772Z,21.33
2023-01-17T18:41:35.154Z,30.70
2023-01-17T18:44:06.001Z,23.83
2023-01-17T18:46:39.284Z,29.65
2023-01-17T18:49:11.870Z,34.30
2023-01-17T18:51:40.540Z,25.30
2023-01-17T18:54:13.068Z,25.48
2023-01-17T18:56:42.488Z,32.78
2023-01-17T18:59:15.640Z,29.15
2023-01-17T19:01:49.081Z,33.40
2023-01-17T19:04:18.347Z,24.13
2023-01-17T19:06:48.481Z,33.42
2023-01-17T19:09:20.354Z,26.60
2023-01-17T19:11:52.538Z,33.88
2023-01-17T19:14:21.008Z,23.63
2023-01-17T19:16:52.745Z,25.05
2023-01-17T19:19:21.181Z,24.05
2023-01-17T19:21:53.954Z,22.42
2023-01-17T19:24:26.418Z,29.05
2023-01-17T19:26:54.855Z,26.27
2023-01-17T19:29:23.541Z,26.67
2023-01-17T19:31:53.008Z,23.60
2023-01-17T19:34:21.450Z,23.73
2023-01-17T19:36:52.281Z,26.60
2023-01-17T19:39:22.635Z,31.27
2023-01-17T19:41:53.967Z,28.13
2023-01-17T19:44:22.579Z,24.55
2023-01-17T19:46:51.218Z,28.83
2023-01-17T19:49:24.366Z,29.90
2023-01-17T19:51:55.202Z,22.35
2023-01-17T19:54:23.619Z,31.58
2023-01-17T19:56:56.045Z,24.17
2023-01-17T19:59:24.555Z,32.38
2023-01-17T20:01:53.305Z,25.58
2023-01-17T20:04:21.828Z,29.75
2023-01-17T20:06:50.423Z,22.15
2023-01-17T20:09:18.995Z,31.92
2023-01-17T20:11:50.921Z,26.95
2023-01-17T20:14:21.692Z,32.83
2023-01-17T20:16:51.506Z,24.98
2023-01-17T20:19:20.021Z,33.20
2023-01-17T20:21:49.484Z,29.25
2023-01-17T20:24:20.801Z,24.27
2023-01-17T20:26:51.167Z,26.08
2023-01-17T20:29:21.142Z,26.95
2023-01-17T20:31:52.562Z,33.70
2023-01-17T20:34:21.090Z,25.48
2023-01-17T20:36:49.485Z,24.13
2023-01-17T20:39:25.348Z,26.92
2023-01-17T20:41:53.868Z,28.63
2023-01-17T20:44:26.360Z,22.17
2023-01-17T20:46:57.067Z,27.15
2023-01-17T20:49:25.772Z,31.63
2023-01-17T20:51:55.291Z,29.70
2023-01-17T20:54:24.606Z,30.15
2023-01-17T20:56:53.194Z,28.63
2023-01-17T20:59:23.787Z,26.65
2023-01-17T21:01:52.392Z,26.52
2023-01-17T21:04:25.783Z,28.13
2023-01-17T21:06:57.017Z,20.35
2023-01-17T21:09:28.044Z,28.60
2023-01-17T21:12:01.196Z,26.55
2023-01-17T21:14:31.434Z,26.75
2023-01-17T21:17:03.936Z,31.42
2023-01-17T21:19:32.370Z,23.38
2023-01-17T21:22:01.563Z,23.55
2023-01-17T21:24:29.962Z,28.73
2023-01-17T21:26:58.407Z,29.02
2023-01-17T21:29:29.175Z,29.23
2023-01-17T21:31:59.055Z,25.98
2023-01-17T21:34:29.531Z,28.05
2023-01-17T21:36:57.908Z,28.73
2023-01-17T21:39:26.391Z,25.48
2023-01-17T21:41:54.803Z,26.88
2023-01-17T21:44:24.440Z,22.10
2023-01-17T21:46:56.109Z,24.98
2023-01-17T21:49:26.212Z,27.15
2023-01-17T21:52:11.956Z,23.92
2023-01-17T21:54:57.955Z,24.13
2023-01-17T21:57:43.964Z,29.30
2023-01-17T22:00:15.609Z,28.60
2023-01-17T22:02:44.490Z,28.05
2023-01-17T22:05:15.066Z,27.23
2023-01-17T22:08:04.589Z,24.88
2023-01-17T22:10:33.155Z,30.67
2023-01-17T22:13:03.505Z,34.53
2023-01-17T22:15:31.859Z,31.52
2023-01-17T22:18:00.552Z,26.52
2023-01-17T22:20:30.357Z,29.05
2023-01-17T22:22:59.032Z,32.80
2023-01-17T22:25:27.621Z,21.52
2023-01-17T22:27:56.589Z,33.22
2023-01-17T22:30:25.160Z,23.23
2023-01-17T22:32:56.290Z,31.65
2023-01-17T22:35:27.170Z,28.83
2023-01-17T22:37:57.684Z,30.42
2023-01-17T22:40:27.935Z,28.33
2023-01-17T22:42:56.540Z,32.28
2023-01-17T22:45:26.007Z,22.90
2023-01-17T22:47:54.384Z,28.27
2023-01-17T22:50:23.464Z,24.50
2023-01-17T22:52:51.841Z,29.33
2023-01-17T22:55:21.671Z,28.55
2023-01-17T22:57:50.240Z,28.27
2023-01-17T23:00:19.227Z,28.33
2023-01-17T23:02:49.952Z,22.58
2023-01-17T23:05:20.982Z,23.50
2023-01-17T23:07:50.929Z,25.38
2023-01-17T23:10:45.834Z,20.45
2023-01-17T23:13:15.662Z,27.40
2023-01-17T23:16:04.341Z,31.85
2023-01-17T23:18:50.389Z,30.70
2023-01-17T23:21:19.233Z,26.80
2023-01-17T23:23:47.589Z,32.28
2023-01-17T23:26:16.989Z,23.92
2023-01-17T23:28:45.685Z,26.67
2023-01-17T23:31:14.056Z,30.50
2023-01-17T23:33:44.200Z,30.20
2023-01-17T23:36:15.489Z,25.50
2023-01-17T23:38:44.203Z,27.40
2023-01-17T23:41:30.135Z,30.35
2023-01-17T23:44:01.891Z,28.63
2023-01-17T23:46:31.063Z,27.75
2023-01-17T23:48:59.482Z,25.55
2023-01-17T23:51:28.154Z,23.23
2023-01-17T23:54:05.465Z,30.83
2023-01-17T23:56:36.348Z,30.95
2023-01-17T23:59:06.098Z,34.35
